sensor_id;sensor_type;location;lat;lon;timestamp;pressure;altitude;pressure_sealevel;temperature;humidity
24558;BME280;12726;49.148;8.582;2023-05-12T00:00:54;100140.00;;;11.64;100.00
24558;BME280;12726;49.148;8.582;2023-05-12T00:03:40;100134.22;;;11.61;100.00
24558;BME280;12726;49.148;8.582;2023-05-12T00:06:25;100133.41;;;11.60;100.00
24558;BME280;12726;49.148;8.582;2023-05-12T00:09:10;100143.56;;;11.58;100.00
24558;BME280;12726;49.148;8.582;2023-05-12T00:11:56;100128.69;;;11.56;100.00
24558;BME280;12726;49.148;8.582;2023-05-12T00:14:43;100135.94;;;11.55;100.00
24558;BME280;12726;49.148;8.582;2023-05-12T00:17:28;100133.25;;;11.55;100.00
24558;BME280;12726;49.148;8.582;2023-05-12T00:20:14;100139.09;;;11.52;100.00
24558;BME280;12726;49.148;8.582;2023-05-12T00:22:59;100138.88;;;11.54;100.00
24558;BME280;12726;49.148;8.582;2023-05-12T00:25:45;100130.78;;;11.54;100.00
24558;BME280;12726;49.148;8.582;2023-05-12T00:28:30;100127.88;;;11.55;100.00
24558;BME280;12726;49.148;8.582;2023-05-12T00:31:18;100124.34;;;11.55;100.00
24558;BME280;12726;49.148;8.582;2023-05-12T00:34:04;100132.22;;;11.56;100.00
24558;BME280;12726;49.148;8.582;2023-05-12T00:36:49;100128.09;;;11.54;100.00
24558;BME280;12726;49.148;8.582;2023-05-12T00:39:34;100121.88;;;11.53;100.00
24558;BME280;12726;49.148;8.582;2023-05-12T00:42:20;100118.81;;;11.50;100.00
24558;BME280;12726;49.148;8.582;2023-05-12T00:45:07;100121.13;;;11.46;100.00
24558;BME280;12726;49.148;8.582;2023-05-12T00:47:54;100125.09;;;11.44;100.00
24558;BME280;12726;49.148;8.582;2023-05-12T00:50:39;100116.19;;;11.43;100.00
24558;BME280;12726;49.148;8.582;2023-05-12T00:53:24;100110.19;;;11.41;100.00
24558;BME280;12726;49.148;8.582;2023-05-12T00:56:11;100110.19;;;11.41;100.00
24558;BME280;12726;49.148;8.582;2023-05-12T00:58:56;100103.75;;;11.42;100.00
24558;BME280;12726;49.148;8.582;2023-05-12T01:01:43;100118.06;;;11.43;100.00
24558;BME280;12726;49.148;8.582;2023-05-12T01:04:29;100112.88;;;11.41;100.00
24558;BME280;12726;49.148;8.582;2023-05-12T01:07:18;100112.06;;;11.41;100.00
24558;BME280;12726;49.148;8.582;2023-05-12T01:10:16;100111.25;;;11.40;100.00
24558;BME280;12726;49.148;8.582;2023-05-12T01:13:01;100107.94;;;11.38;100.00
24558;BME280;12726;49.148;8.582;2023-05-12T01:15:47;100109.38;;;11.41;100.00
24558;BME280;12726;49.148;8.582;2023-05-12T01:18:33;100102.31;;;11.39;100.00
24558;BME280;12726;49.148;8.582;2023-05-12T01:21:23;100112.88;;;11.41;100.00
24558;BME280;12726;49.148;8.582;2023-05-12T01:24:10;100106.06;;;11.38;100.00
24558;BME280;12726;49.148;8.582;2023-05-12T01:26:58;100105.03;;;11.39;100.00
24558;BME280;12726;49.148;8.582;2023-05-12T01:29:45;100111.03;;;11.42;100.00
24558;BME280;12726;49.148;8.582;2023-05-12T01:32:31;100105.41;;;11.43;100.00
24558;BME280;12726;49.148;8.582;2023-05-12T01:35:16;100103.53;;;11.44;100.00
24558;BME280;12726;49.148;8.582;2023-05-12T01:38:01;100108.69;;;11.45;100.00
24558;BME280;12726;49.148;8.582;2023-05-12T01:40:47;100109.97;;;11.43;100.00
24558;BME280;12726;49.148;8.582;2023-05-12T01:43:34;100109.97;;;11.43;100.00
24558;BME280;12726;49.148;8.582;2023-05-12T01:46:19;100107.03;;;11.44;100.00
24558;BME280;12726;49.148;8.582;2023-05-12T01:49:05;100114.06;;;11.45;100.00
24558;BME280;12726;49.148;8.582;2023-05-12T01:51:50;100113.84;;;11.47;100.00
24558;BME280;12726;49.148;8.582;2023-05-12T01:54:36;100115.38;;;11.43;100.00
24558;BME280;12726;49.148;8.582;2023-05-12T01:57:21;100102.94;;;11.42;100.00
24558;BME280;12726;49.148;8.582;2023-05-12T02:00:09;100114.75;;;11.41;100.00
24558;BME280;12726;49.148;8.582;2023-05-12T02:02:55;100107.72;;;11.39;100.00
24558;BME280;12726;49.148;8.582;2023-05-12T02:05:41;100111.25;;;11.40;100.00
24558;BME280;12726;49.148;8.582;2023-05-12T02:08:26;100110.63;;;11.38;100.00
24558;BME280;12726;49.148;8.582;2023-05-12T02:11:11;100110.41;;;11.39;100.00
24558;BME280;12726;49.148;8.582;2023-05-12T02:13:57;100108.75;;;11.38;100.00
24558;BME280;12726;49.148;8.582;2023-05-12T02:16:44;100111.69;;;11.37;100.00
24558;BME280;12726;49.148;8.582;2023-05-12T02:19:30;100114.63;;;11.35;100.00
24558;BME280;12726;49.148;8.582;2023-05-12T02:22:15;100108.00;;;11.31;100.00
24558;BME280;12726;49.148;8.582;2023-05-12T02:25:01;100114.69;;;11.29;100.00
24558;BME280;12726;49.148;8.582;2023-05-12T02:27:46;100114.09;;;11.27;100.00
24558;BME280;12726;49.148;8.582;2023-05-12T02:30:32;100111.47;;;11.20;100.00
24558;BME280;12726;49.148;8.582;2023-05-12T02:33:20;100116.25;;;11.18;100.00
24558;BME280;12726;49.148;8.582;2023-05-12T02:36:06;100101.81;;;11.13;100.00
24558;BME280;12726;49.148;8.582;2023-05-12T02:38:51;100107.34;;;11.18;100.00
24558;BME280;12726;49.148;8.582;2023-05-12T02:41:37;100107.34;;;11.18;100.00
24558;BME280;12726;49.148;8.582;2023-05-12T02:44:22;100099.03;;;11.19;100.00
24558;BME280;12726;49.148;8.582;2023-05-12T02:47:08;100105.84;;;11.22;100.00
24558;BME280;12726;49.148;8.582;2023-05-12T02:49:54;100103.16;;;11.22;100.00
24558;BME280;12726;49.148;8.582;2023-05-12T02:52:40;100098.00;;;11.20;100.00
24558;BME280;12726;49.148;8.582;2023-05-12T02:55:25;100108.16;;;11.18;100.00
24558;BME280;12726;49.148;8.582;2023-05-12T02:58:13;100098.91;;;11.14;100.00
24558;BME280;12726;49.148;8.582;2023-05-12T03:00:58;100092.06;;;11.12;100.00
24558;BME280;12726;49.148;8.582;2023-05-12T03:03:43;100105.53;;;11.12;100.00
24558;BME280;12726;49.148;8.582;2023-05-12T03:06:30;100093.13;;;11.11;100.00
24558;BME280;12726;49.148;8.582;2023-05-12T03:09:16;100095.19;;;11.09;100.00
24558;BME280;12726;49.148;8.582;2023-05-12T03:12:01;100109.50;;;11.09;100.00
24558;BME280;12726;49.148;8.582;2023-05-12T03:14:47;100099.19;;;11.06;100.00
24558;BME280;12726;49.148;8.582;2023-05-12T03:17:32;100107.69;;;11.03;100.00
24558;BME280;12726;49.148;8.582;2023-05-12T03:20:18;100112.72;;;10.99;100.00
24558;BME280;12726;49.148;8.582;2023-05-12T03:23:05;100103.81;;;10.99;100.00
24558;BME280;12726;49.148;8.582;2023-05-12T03:25:50;100108.38;;;10.98;100.00
24558;BME280;12726;49.148;8.582;2023-05-12T03:28:36;100108.81;;;10.95;100.00
24558;BME280;12726;49.148;8.582;2023-05-12T03:31:22;100107.41;;;10.93;100.00
24558;BME280;12726;49.148;8.582;2023-05-12T03:34:07;100108.44;;;10.92;100.00
24558;BME280;12726;49.148;8.582;2023-05-12T03:36:53;100101.41;;;10.91;100.00
24558;BME280;12726;49.148;8.582;2023-05-12T03:39:39;100104.31;;;10.89;100.00
24558;BME280;12726;49.148;8.582;2023-05-12T03:42:24;100101.84;;;10.88;100.00
24558;BME280;12726;49.148;8.582;2023-05-12T03:45:10;100106.38;;;10.87;100.00
24558;BME280;12726;49.148;8.582;2023-05-12T03:47:56;100104.09;;;10.91;100.00
24558;BME280;12726;49.148;8.582;2023-05-12T03:50:41;100099.75;;;10.90;100.00
24558;BME280;12726;49.148;8.582;2023-05-12T03:53:27;100102.22;;;10.91;100.00
24558;BME280;12726;49.148;8.582;2023-05-12T03:56:13;100099.31;;;10.93;100.00
24558;BME280;12726;49.148;8.582;2023-05-12T03:58:59;100108.22;;;10.93;100.00
24558;BME280;12726;49.148;8.582;2023-05-12T04:01:45;100103.41;;;10.95;100.00
24558;BME280;12726;49.148;8.582;2023-05-12T04:04:30;100106.50;;;10.99;100.00
24558;BME280;12726;49.148;8.582;2023-05-12T04:07:15;100097.13;;;11.02;100.00
24558;BME280;12726;49.148;8.582;2023-05-12T04:10:00;100105.00;;;11.03;100.00
24558;BME280;12726;49.148;8.582;2023-05-12T04:12:47;100113.91;;;11.04;100.00
24558;BME280;12726;49.148;8.582;2023-05-12T04:15:32;100111.22;;;11.04;100.00
24558;BME280;12726;49.148;8.582;2023-05-12T04:18:18;100111.22;;;11.04;100.00
24558;BME280;12726;49.148;8.582;2023-05-12T04:21:03;100113.69;;;11.05;100.00
24558;BME280;12726;49.148;8.582;2023-05-12T04:23:50;100118.03;;;11.06;100.00
24558;BME280;12726;49.148;8.582;2023-05-12T04:26:35;100115.94;;;11.08;100.00
24558;BME280;12726;49.148;8.582;2023-05-12T04:29:22;100108.91;;;11.07;100.00
24558;BME280;12726;49.148;8.582;2023-05-12T04:32:07;100109.75;;;11.08;100.00
24558;BME280;12726;49.148;8.582;2023-05-12T04:34:52;100121.50;;;11.13;100.00
24558;BME280;12726;49.148;8.582;2023-05-12T04:37:39;100127.50;;;11.15;100.00
24558;BME280;12726;49.148;8.582;2023-05-12T04:40:24;100111.91;;;11.17;100.00
24558;BME280;12726;49.148;8.582;2023-05-12T04:43:10;100131.22;;;11.14;100.00
24558;BME280;12726;49.148;8.582;2023-05-12T04:45:56;100116.72;;;11.15;100.00
24558;BME280;12726;49.148;8.582;2023-05-12T04:48:41;100121.03;;;11.16;100.00
24558;BME280;12726;49.148;8.582;2023-05-12T04:51:27;100123.06;;;11.21;100.00
24558;BME280;12726;49.148;8.582;2023-05-12T04:54:12;100118.25;;;11.23;100.00
24558;BME280;12726;49.148;8.582;2023-05-12T04:56:57;100124.94;;;11.20;100.00
24558;BME280;12726;49.148;8.582;2023-05-12T04:59:43;100124.47;;;11.23;100.00
24558;BME280;12726;49.148;8.582;2023-05-12T05:02:30;100124.25;;;11.25;100.00
24558;BME280;12726;49.148;8.582;2023-05-12T05:05:15;100131.69;;;11.29;100.00
24558;BME280;12726;49.148;8.582;2023-05-12T05:08:00;100132.66;;;11.35;100.00
24558;BME280;12726;49.148;8.582;2023-05-12T05:10:46;100124.09;;;11.38;100.00
24558;BME280;12726;49.148;8.582;2023-05-12T05:13:31;100138.59;;;11.44;100.00
24558;BME280;12726;49.148;8.582;2023-05-12T05:16:16;100138.50;;;11.50;100.00
24558;BME280;12726;49.148;8.582;2023-05-12T05:19:03;100140.53;;;11.55;100.00
24558;BME280;12726;49.148;8.582;2023-05-12T05:21:49;100142.53;;;11.59;100.00
24558;BME280;12726;49.148;8.582;2023-05-12T05:24:34;100144.78;;;11.62;100.00
24558;BME280;12726;49.148;8.582;2023-05-12T05:27:19;100146.88;;;11.60;100.00
24558;BME280;12726;49.148;8.582;2023-05-12T05:30:06;100147.84;;;11.66;100.00
24558;BME280;12726;49.148;8.582;2023-05-12T05:32:52;100150.88;;;11.76;100.00
24558;BME280;12726;49.148;8.582;2023-05-12T05:35:39;100149.81;;;11.77;100.00
24558;BME280;12726;49.148;8.582;2023-05-12T05:38:24;100149.34;;;11.80;100.00
24558;BME280;12726;49.148;8.582;2023-05-12T05:41:10;100153.94;;;11.80;100.00
24558;BME280;12726;49.148;8.582;2023-05-12T05:43:55;100145.19;;;11.84;100.00
24558;BME280;12726;49.148;8.582;2023-05-12T05:46:41;100159.09;;;11.81;100.00
24558;BME280;12726;49.148;8.582;2023-05-12T05:49:26;100154.53;;;11.82;100.00
24558;BME280;12726;49.148;8.582;2023-05-12T05:52:13;100155.50;;;11.87;100.00
24558;BME280;12726;49.148;8.582;2023-05-12T05:54:58;100138.72;;;11.85;100.00
24558;BME280;12726;49.148;8.582;2023-05-12T05:57:44;100150.69;;;11.89;100.00
24558;BME280;12726;49.148;8.582;2023-05-12T06:00:29;100153.31;;;11.96;100.00
24558;BME280;12726;49.148;8.582;2023-05-12T06:03:14;100155.34;;;12.00;100.00
24558;BME280;12726;49.148;8.582;2023-05-12T06:06:00;100156.75;;;12.03;100.00
24558;BME280;12726;49.148;8.582;2023-05-12T06:08:47;100152.56;;;12.07;100.00
24558;BME280;12726;49.148;8.582;2023-05-12T06:11:32;100167.09;;;12.06;100.00
24558;BME280;12726;49.148;8.582;2023-05-12T06:14:17;100159.22;;;12.04;100.00
24558;BME280;12726;49.148;8.582;2023-05-12T06:17:03;100174.16;;;12.07;100.00
24558;BME280;12726;49.148;8.582;2023-05-12T06:19:49;100174.97;;;12.07;100.00
24558;BME280;12726;49.148;8.582;2023-05-12T06:22:34;100172.84;;;12.09;100.00
24558;BME280;12726;49.148;8.582;2023-05-12T06:25:21;100181.09;;;12.14;100.00
24558;BME280;12726;49.148;8.582;2023-05-12T06:28:06;100173.22;;;12.13;100.00
24558;BME280;12726;49.148;8.582;2023-05-12T06:30:52;100175.00;;;12.19;100.00
24558;BME280;12726;49.148;8.582;2023-05-12T06:33:37;100176.44;;;12.22;100.00
24558;BME280;12726;49.148;8.582;2023-05-12T06:36:23;100175.84;;;12.20;100.00
24558;BME280;12726;49.148;8.582;2023-05-12T06:39:08;100183.63;;;12.28;100.00
24558;BME280;12726;49.148;8.582;2023-05-12T06:41:55;100186.22;;;12.34;100.00
24558;BME280;12726;49.148;8.582;2023-05-12T06:44:40;100182.38;;;12.42;100.00
24558;BME280;12726;49.148;8.582;2023-05-12T06:47:26;100182.84;;;12.50;100.00
24558;BME280;12726;49.148;8.582;2023-05-12T06:50:11;100187.56;;;12.55;100.00
24558;BME280;12726;49.148;8.582;2023-05-12T06:52:56;100183.56;;;12.57;100.00
24558;BME280;12726;49.148;8.582;2023-05-12T06:55:42;100181.59;;;12.65;100.00
24558;BME280;12726;49.148;8.582;2023-05-12T06:58:30;100191.50;;;12.71;100.00
24558;BME280;12726;49.148;8.582;2023-05-12T07:01:15;100188.91;;;12.76;100.00
24558;BME280;12726;49.148;8.582;2023-05-12T07:04:00;100193.84;;;12.79;100.00
24558;BME280;12726;49.148;8.582;2023-05-12T07:06:46;100193.50;;;12.75;100.00
24558;BME280;12726;49.148;8.582;2023-05-12T07:09:31;100191.63;;;12.87;100.00
24558;BME280;12726;49.148;8.582;2023-05-12T07:12:17;100188.47;;;12.90;100.00
24558;BME280;12726;49.148;8.582;2023-05-12T07:15:05;100198.56;;;12.95;100.00
24558;BME280;12726;49.148;8.582;2023-05-12T07:17:51;100192.84;;;13.03;100.00
24558;BME280;12726;49.148;8.582;2023-05-12T07:20:36;100198.00;;;13.05;100.00
24558;BME280;12726;49.148;8.582;2023-05-12T07:23:22;100181.56;;;13.06;100.00
24558;BME280;12726;49.148;8.582;2023-05-12T07:26:07;100195.81;;;13.13;100.00
24558;BME280;12726;49.148;8.582;2023-05-12T07:28:53;100194.41;;;13.22;100.00
24558;BME280;12726;49.148;8.582;2023-05-12T07:31:40;100197.47;;;13.38;100.00
24558;BME280;12726;49.148;8.582;2023-05-12T07:34:25;100201.69;;;13.33;100.00
24558;BME280;12726;49.148;8.582;2023-05-12T07:37:11;100197.94;;;13.23;100.00
24558;BME280;12726;49.148;8.582;2023-05-12T07:39:56;100189.78;;;13.11;100.00
24558;BME280;12726;49.148;8.582;2023-05-12T07:42:41;100190.63;;;13.23;100.00
24558;BME280;12726;49.148;8.582;2023-05-12T07:45:27;100187.00;;;13.29;100.00
24558;BME280;12726;49.148;8.582;2023-05-12T07:48:13;100188.53;;;13.37;100.00
24558;BME280;12726;49.148;8.582;2023-05-12T07:50:58;100188.41;;;13.55;100.00
24558;BME280;12726;49.148;8.582;2023-05-12T07:53:44;100187.09;;;13.69;100.00
24558;BME280;12726;49.148;8.582;2023-05-12T07:56:29;100184.25;;;13.76;100.00
24558;BME280;12726;49.148;8.582;2023-05-12T07:59:15;100185.31;;;13.75;100.00
24558;BME280;12726;49.148;8.582;2023-05-12T08:02:00;100188.16;;;13.68;100.00
24558;BME280;12726;49.148;8.582;2023-05-12T08:04:47;100189.19;;;13.67;100.00
24558;BME280;12726;49.148;8.582;2023-05-12T08:07:32;100189.78;;;13.58;100.00
24558;BME280;12726;49.148;8.582;2023-05-12T08:10:17;100195.00;;;13.48;100.00
24558;BME280;12726;49.148;8.582;2023-05-12T08:13:03;100184.53;;;13.40;100.00
24558;BME280;12726;49.148;8.582;2023-05-12T08:15:49;100190.41;;;13.37;100.00
24558;BME280;12726;49.148;8.582;2023-05-12T08:18:34;100180.66;;;13.36;100.00
24558;BME280;12726;49.148;8.582;2023-05-12T08:21:21;100189.59;;;13.48;100.00
24558;BME280;12726;49.148;8.582;2023-05-12T08:24:07;100179.66;;;13.77;100.00
24558;BME280;12726;49.148;8.582;2023-05-12T08:26:52;100180.84;;;14.09;100.00
24558;BME280;12726;49.148;8.582;2023-05-12T08:29:38;100183.78;;;14.36;100.00
24558;BME280;12726;49.148;8.582;2023-05-12T08:32:24;100173.66;;;14.43;100.00
24558;BME280;12726;49.148;8.582;2023-05-12T08:35:09;100179.13;;;14.60;98.29
24558;BME280;12726;49.148;8.582;2023-05-12T08:37:56;100175.84;;;14.74;99.26
24558;BME280;12726;49.148;8.582;2023-05-12T08:40:46;100183.50;;;14.77;97.72
24558;BME280;12726;49.148;8.582;2023-05-12T08:43:36;100186.34;;;14.71;96.68
24558;BME280;12726;49.148;8.582;2023-05-12T08:46:22;100186.94;;;14.56;95.85
24558;BME280;12726;49.148;8.582;2023-05-12T08:49:09;100185.44;;;14.65;95.78
24558;BME280;12726;49.148;8.582;2023-05-12T08:52:00;100187.13;;;14.83;96.00
24558;BME280;12726;49.148;8.582;2023-05-12T08:54:49;100193.75;;;14.92;95.74
24558;BME280;12726;49.148;8.582;2023-05-12T08:57:35;100194.94;;;14.96;95.10
24558;BME280;12726;49.148;8.582;2023-05-12T09:00:22;100188.19;;;14.99;95.38
24558;BME280;12726;49.148;8.582;2023-05-12T09:03:11;100190.06;;;14.81;94.66
24558;BME280;12726;49.148;8.582;2023-05-12T09:05:57;100192.34;;;14.56;94.57
24558;BME280;12726;49.148;8.582;2023-05-12T09:08:43;100191.75;;;14.26;96.62
24558;BME280;12726;49.148;8.582;2023-05-12T09:11:30;100198.28;;;14.01;97.58
24558;BME280;12726;49.148;8.582;2023-05-12T09:14:17;100181.03;;;13.79;99.62
24558;BME280;12726;49.148;8.582;2023-05-12T09:17:05;100201.81;;;13.62;100.00
24558;BME280;12726;49.148;8.582;2023-05-12T09:19:51;100200.06;;;13.56;100.00
24558;BME280;12726;49.148;8.582;2023-05-12T09:22:36;100196.88;;;13.47;100.00
24558;BME280;12726;49.148;8.582;2023-05-12T09:25:22;100194.50;;;13.51;100.00
24558;BME280;12726;49.148;8.582;2023-05-12T09:28:09;100196.97;;;13.64;100.00
24558;BME280;12726;49.148;8.582;2023-05-12T09:30:54;100192.38;;;13.76;100.00
24558;BME280;12726;49.148;8.582;2023-05-12T09:33:40;100190.44;;;13.88;100.00
24558;BME280;12726;49.148;8.582;2023-05-12T09:36:25;100193.69;;;14.02;100.00
24558;BME280;12726;49.148;8.582;2023-05-12T09:39:11;100188.38;;;14.19;100.00
24558;BME280;12726;49.148;8.582;2023-05-12T09:41:56;100186.09;;;14.27;100.00
24558;BME280;12726;49.148;8.582;2023-05-12T09:44:43;100187.00;;;14.33;100.00
24558;BME280;12726;49.148;8.582;2023-05-12T09:47:37;100186.25;;;14.49;100.00
24558;BME280;12726;49.148;8.582;2023-05-12T09:50:29;100189.78;;;14.49;99.97
24558;BME280;12726;49.148;8.582;2023-05-12T09:53:15;100187.31;;;14.48;98.56
24558;BME280;12726;49.148;8.582;2023-05-12T09:56:01;100199.00;;;14.37;99.21
24558;BME280;12726;49.148;8.582;2023-05-12T09:58:48;100186.25;;;14.49;96.95
24558;BME280;12726;49.148;8.582;2023-05-12T10:01:35;100193.06;;;14.52;97.19
24558;BME280;12726;49.148;8.582;2023-05-12T10:04:20;100190.72;;;14.55;96.76
24558;BME280;12726;49.148;8.582;2023-05-12T10:07:07;100194.75;;;14.69;99.20
24558;BME280;12726;49.148;8.582;2023-05-12T10:09:58;100191.38;;;14.79;98.14
24558;BME280;12726;49.148;8.582;2023-05-12T10:12:45;100193.47;;;15.05;96.12
24558;BME280;12726;49.148;8.582;2023-05-12T10:15:31;100190.72;;;15.22;96.06
24558;BME280;12726;49.148;8.582;2023-05-12T10:18:19;100189.31;;;15.36;94.07
24558;BME280;12726;49.148;8.582;2023-05-12T10:21:05;100188.31;;;15.59;93.36
24558;BME280;12726;49.148;8.582;2023-05-12T10:23:53;100183.28;;;15.68;92.79
24558;BME280;12726;49.148;8.582;2023-05-12T10:26:39;100187.25;;;15.60;93.02
24558;BME280;12726;49.148;8.582;2023-05-12T10:29:26;100185.34;;;15.44;92.67
24558;BME280;12726;49.148;8.582;2023-05-12T10:32:14;100190.66;;;15.34;93.24
24558;BME280;12726;49.148;8.582;2023-05-12T10:35:08;100198.25;;;15.37;89.62
24558;BME280;12726;49.148;8.582;2023-05-12T10:37:53;100197.47;;;15.03;90.83
24558;BME280;12726;49.148;8.582;2023-05-12T10:40:50;100195.25;;;14.83;92.90
24558;BME280;12726;49.148;8.582;2023-05-12T10:43:39;100198.16;;;14.65;93.73
24558;BME280;12726;49.148;8.582;2023-05-12T10:46:26;100199.59;;;14.39;96.10
24558;BME280;12726;49.148;8.582;2023-05-12T10:49:12;100202.06;;;14.29;98.43
24558;BME280;12726;49.148;8.582;2023-05-12T10:51:59;100194.22;;;14.27;98.75
24558;BME280;12726;49.148;8.582;2023-05-12T10:54:46;100200.47;;;14.28;99.56
24558;BME280;12726;49.148;8.582;2023-05-12T10:57:31;100196.94;;;14.27;99.72
24558;BME280;12726;49.148;8.582;2023-05-12T11:00:23;100199.00;;;14.37;100.00
24558;BME280;12726;49.148;8.582;2023-05-12T11:03:12;100202.00;;;14.52;100.00
24558;BME280;12726;49.148;8.582;2023-05-12T11:06:00;100203.06;;;14.51;98.06
24558;BME280;12726;49.148;8.582;2023-05-12T11:08:47;100200.47;;;14.56;98.88
24558;BME280;12726;49.148;8.582;2023-05-12T11:11:32;100200.41;;;14.68;97.49
24558;BME280;12726;49.148;8.582;2023-05-12T11:14:18;100199.25;;;14.80;97.11
24558;BME280;12726;49.148;8.582;2023-05-12T11:17:04;100193.75;;;14.92;97.44
24558;BME280;12726;49.148;8.582;2023-05-12T11:19:50;100192.22;;;14.96;98.32
24558;BME280;12726;49.148;8.582;2023-05-12T11:22:36;100203.13;;;15.01;96.72
24558;BME280;12726;49.148;8.582;2023-05-12T11:25:26;100197.00;;;15.06;97.39
24558;BME280;12726;49.148;8.582;2023-05-12T11:28:11;100206.44;;;15.03;95.81
24558;BME280;12726;49.148;8.582;2023-05-12T11:30:57;100195.66;;;15.08;96.33
24558;BME280;12726;49.148;8.582;2023-05-12T11:33:42;100209.16;;;15.20;95.91
24558;BME280;12726;49.148;8.582;2023-05-12T11:36:27;100207.09;;;15.27;95.60
24558;BME280;12726;49.148;8.582;2023-05-12T11:39:14;100199.97;;;15.43;96.26
24558;BME280;12726;49.148;8.582;2023-05-12T11:42:03;100205.81;;;15.51;95.37
24558;BME280;12726;49.148;8.582;2023-05-12T11:44:48;100208.94;;;15.60;95.64
24558;BME280;12726;49.148;8.582;2023-05-12T11:47:34;100205.03;;;15.73;91.43
24558;BME280;12726;49.148;8.582;2023-05-12T11:50:21;100200.25;;;15.80;90.73
24558;BME280;12726;49.148;8.582;2023-05-12T11:53:09;100195.47;;;16.09;92.92
24558;BME280;12726;49.148;8.582;2023-05-12T11:55:57;100207.75;;;16.38;92.36
24558;BME280;12726;49.148;8.582;2023-05-12T11:58:51;100208.56;;;16.60;90.19
24558;BME280;12726;49.148;8.582;2023-05-12T12:01:43;100204.03;;;16.98;89.38
24558;BME280;12726;49.148;8.582;2023-05-12T12:04:37;100212.22;;;17.40;87.39
24558;BME280;12726;49.148;8.582;2023-05-12T12:07:30;100204.13;;;17.55;82.65
24558;BME280;12726;49.148;8.582;2023-05-12T12:10:16;100206.09;;;17.59;82.79
24558;BME280;12726;49.148;8.582;2023-05-12T12:13:02;100204.53;;;17.69;78.48
24558;BME280;12726;49.148;8.582;2023-05-12T12:15:48;100206.97;;;17.70;78.83
24558;BME280;12726;49.148;8.582;2023-05-12T12:18:33;100208.47;;;17.51;80.18
24558;BME280;12726;49.148;8.582;2023-05-12T12:21:19;100210.72;;;17.59;76.41
24558;BME280;12726;49.148;8.582;2023-05-12T12:24:05;100214.38;;;17.38;80.71
24558;BME280;12726;49.148;8.582;2023-05-12T12:26:51;100214.97;;;17.45;79.63
24558;BME280;12726;49.148;8.582;2023-05-12T12:29:36;100210.72;;;17.59;77.72
24558;BME280;12726;49.148;8.582;2023-05-12T12:32:23;100219.19;;;17.63;75.76
24558;BME280;12726;49.148;8.582;2023-05-12T12:35:09;100212.34;;;17.60;77.76
24558;BME280;12726;49.148;8.582;2023-05-12T12:37:54;100215.63;;;17.62;78.48
24558;BME280;12726;49.148;8.582;2023-05-12T12:40:39;100215.31;;;17.53;79.26
24558;BME280;12726;49.148;8.582;2023-05-12T12:43:25;100224.00;;;17.55;79.84
24558;BME280;12726;49.148;8.582;2023-05-12T12:46:10;100217.50;;;17.56;78.89
24558;BME280;12726;49.148;8.582;2023-05-12T12:48:57;100212.13;;;17.62;80.74
24558;BME280;12726;49.148;8.582;2023-05-12T12:51:43;100215.78;;;17.45;82.12
24558;BME280;12726;49.148;8.582;2023-05-12T12:54:28;100210.13;;;17.15;80.69
24558;BME280;12726;49.148;8.582;2023-05-12T12:57:14;100214.75;;;16.82;80.79
24558;BME280;12726;49.148;8.582;2023-05-12T12:59:59;100226.38;;;16.51;83.38
24558;BME280;12726;49.148;8.582;2023-05-12T13:02:44;100250.47;;;16.21;87.46
24558;BME280;12726;49.148;8.582;2023-05-12T13:05:31;100245.56;;;15.79;93.28
24558;BME280;12726;49.148;8.582;2023-05-12T13:08:17;100232.06;;;15.62;93.21
24558;BME280;12726;49.148;8.582;2023-05-12T13:11:02;100248.09;;;15.47;96.36
24558;BME280;12726;49.148;8.582;2023-05-12T13:13:48;100247.59;;;15.34;93.95
24558;BME280;12726;49.148;8.582;2023-05-12T13:16:33;100241.53;;;15.26;95.30
24558;BME280;12726;49.148;8.582;2023-05-12T13:19:18;100244.44;;;15.42;97.08
24558;BME280;12726;49.148;8.582;2023-05-12T13:22:05;100240.88;;;15.53;95.32
24558;BME280;12726;49.148;8.582;2023-05-12T13:24:51;100230.72;;;15.65;96.93
24558;BME280;12726;49.148;8.582;2023-05-12T13:27:37;100234.53;;;15.86;96.30
24558;BME280;12726;49.148;8.582;2023-05-12T13:30:22;100225.34;;;16.09;94.88
24558;BME280;12726;49.148;8.582;2023-05-12T13:33:08;100225.72;;;16.17;91.81
24558;BME280;12726;49.148;8.582;2023-05-12T13:35:53;100225.75;;;16.22;92.25
24558;BME280;12726;49.148;8.582;2023-05-12T13:38:41;100232.84;;;16.23;92.91
24558;BME280;12726;49.148;8.582;2023-05-12T13:41:26;100232.72;;;16.13;88.29
24558;BME280;12726;49.148;8.582;2023-05-12T13:44:11;100227.78;;;15.88;90.90
24558;BME280;12726;49.148;8.582;2023-05-12T13:46:57;100228.16;;;15.75;92.87
24558;BME280;12726;49.148;8.582;2023-05-12T13:49:42;100230.31;;;15.56;95.51
24558;BME280;12726;49.148;8.582;2023-05-12T13:52:28;100232.34;;;15.49;97.85
24558;BME280;12726;49.148;8.582;2023-05-12T13:55:14;100244.13;;;15.21;96.76
24558;BME280;12726;49.148;8.582;2023-05-12T13:58:00;100245.94;;;14.99;99.35
24558;BME280;12726;49.148;8.582;2023-05-12T14:00:45;100241.78;;;14.63;100.00
24558;BME280;12726;49.148;8.582;2023-05-12T14:03:32;100233.63;;;14.35;100.00
24558;BME280;12726;49.148;8.582;2023-05-12T14:06:17;100237.03;;;14.30;100.00
24558;BME280;12726;49.148;8.582;2023-05-12T14:09:03;100233.88;;;14.33;100.00
24558;BME280;12726;49.148;8.582;2023-05-12T14:11:50;100234.69;;;14.34;100.00
24558;BME280;12726;49.148;8.582;2023-05-12T14:14:35;100227.13;;;14.36;100.00
24558;BME280;12726;49.148;8.582;2023-05-12T14:17:21;100242.47;;;14.42;100.00
24558;BME280;12726;49.148;8.582;2023-05-12T14:20:07;100232.31;;;14.49;100.00